sensor_id;sensor_type;location;lat;lon;timestamp;pressure;altitude;pressure_sealevel;temperature;humidity
27613;BME280;15036;48.094;-1.690;2023-01-25T00:01:29;102994.31;;;9.12;51.92
27613;BME280;15036;48.094;-1.690;2023-01-25T00:03:54;102998.88;;;9.12;51.57
27613;BME280;15036;48.094;-1.690;2023-01-25T00:06:20;102996.28;;;9.10;51.59
27613;BME280;15036;48.094;-1.690;2023-01-25T00:08:51;102992.88;;;9.18;51.71
27613;BME280;15036;48.094;-1.690;2023-01-25T00:11:17;102995.16;;;9.13;51.73
27613;BME280;15036;48.094;-1.690;2023-01-25T00:13:44;103006.66;;;9.16;51.54
27613;BME280;15036;48.094;-1.690;2023-01-25T00:16:10;102999.59;;;9.14;51.67
27613;BME280;15036;48.094;-1.690;2023-01-25T00:18:35;102996.69;;;9.26;51.18
27613;BME280;15036;48.094;-1.690;2023-01-25T00:21:17;103006.25;;;9.21;51.11
27613;BME280;15036;48.094;-1.690;2023-01-25T00:23:43;103007.25;;;9.20;51.35
27613;BME280;15036;48.094;-1.690;2023-01-25T00:26:08;103003.78;;;9.18;51.49
27613;BME280;15036;48.094;-1.690;2023-01-25T00:28:34;103011.53;;;9.13;51.70
27613;BME280;15036;48.094;-1.690;2023-01-25T00:31:00;103004.13;;;9.24;51.56
27613;BME280;15036;48.094;-1.690;2023-01-25T00:33:59;103008.13;;;9.20;51.50
27613;BME280;15036;48.094;-1.690;2023-01-25T00:39:04;103013.28;;;9.23;51.68
27613;BME280;15036;48.094;-1.690;2023-01-25T00:41:30;103002.53;;;9.22;51.51
27613;BME280;15036;48.094;-1.690;2023-01-25T00:43:56;103004.13;;;9.04;51.36
27613;BME280;15036;48.094;-1.690;2023-01-25T00:46:21;103003.28;;;9.33;51.24
27613;BME280;15036;48.094;-1.690;2023-01-25T00:48:47;103005.72;;;9.27;51.27
27613;BME280;15036;48.094;-1.690;2023-01-25T00:51:12;103005.25;;;9.22;51.29
27613;BME280;15036;48.094;-1.690;2023-01-25T00:53:38;103007.44;;;9.07;51.69
27613;BME280;15036;48.094;-1.690;2023-01-25T00:56:03;103004.72;;;9.28;51.35
27613;BME280;15036;48.094;-1.690;2023-01-25T00:58:29;103002.28;;;9.25;51.37
27613;BME280;15036;48.094;-1.690;2023-01-25T01:00:55;102999.41;;;9.26;51.41
27613;BME280;15036;48.094;-1.690;2023-01-25T01:03:21;102994.09;;;9.25;51.46
27613;BME280;15036;48.094;-1.690;2023-01-25T01:05:47;102996.34;;;9.20;51.42
27613;BME280;15036;48.094;-1.690;2023-01-25T01:08:13;102999.47;;;9.15;51.61
27613;BME280;15036;48.094;-1.690;2023-01-25T01:10:39;103002.22;;;8.95;51.96
27613;BME280;15036;48.094;-1.690;2023-01-25T01:13:04;102996.53;;;9.07;51.84
27613;BME280;15036;48.094;-1.690;2023-01-25T01:15:30;102993.44;;;9.12;51.71
27613;BME280;15036;48.094;-1.690;2023-01-25T01:17:55;102997.03;;;9.12;51.57
27613;BME280;15036;48.094;-1.690;2023-01-25T01:20:21;102991.25;;;9.06;52.07
27613;BME280;15036;48.094;-1.690;2023-01-25T01:22:46;102993.19;;;9.15;51.83
27613;BME280;15036;48.094;-1.690;2023-01-25T01:25:12;102989.19;;;8.77;52.08
27613;BME280;15036;48.094;-1.690;2023-01-25T01:27:38;102988.78;;;8.82;51.99
27613;BME280;15036;48.094;-1.690;2023-01-25T01:30:04;102985.94;;;9.04;51.98
27613;BME280;15036;48.094;-1.690;2023-01-25T01:32:30;102995.03;;;9.14;51.46
27613;BME280;15036;48.094;-1.690;2023-01-25T01:34:55;102991.47;;;9.23;51.71
27613;BME280;15036;48.094;-1.690;2023-01-25T01:37:20;102991.72;;;9.11;51.77
27613;BME280;15036;48.094;-1.690;2023-01-25T01:39:46;102993.44;;;9.12;51.81
27613;BME280;15036;48.094;-1.690;2023-01-25T01:42:11;102988.13;;;9.10;51.89
27613;BME280;15036;48.094;-1.690;2023-01-25T01:44:48;102983.44;;;9.22;51.64
27613;BME280;15036;48.094;-1.690;2023-01-25T01:47:39;102988.47;;;8.96;51.94
27613;BME280;15036;48.094;-1.690;2023-01-25T01:50:17;102992.13;;;9.06;52.08
27613;BME280;15036;48.094;-1.690;2023-01-25T01:52:43;102991.03;;;8.98;51.79
27613;BME280;15036;48.094;-1.690;2023-01-25T01:55:15;102980.88;;;9.00;52.09
27613;BME280;15036;48.094;-1.690;2023-01-25T01:57:46;102979.84;;;8.91;52.30
27613;BME280;15036;48.094;-1.690;2023-01-25T02:00:20;102979.63;;;9.04;52.14
27613;BME280;15036;48.094;-1.690;2023-01-25T02:02:48;102985.59;;;8.98;52.22
27613;BME280;15036;48.094;-1.690;2023-01-25T02:05:24;102984.13;;;8.94;52.28
27613;BME280;15036;48.094;-1.690;2023-01-25T02:07:52;102983.03;;;8.96;52.24
27613;BME280;15036;48.094;-1.690;2023-01-25T02:10:19;102988.47;;;8.75;52.94
27613;BME280;15036;48.094;-1.690;2023-01-25T02:12:46;102985.28;;;8.91;52.21
27613;BME280;15036;48.094;-1.690;2023-01-25T02:15:12;102983.50;;;8.81;52.50
27613;BME280;15036;48.094;-1.690;2023-01-25T02:17:39;102987.59;;;8.96;52.20
27613;BME280;15036;48.094;-1.690;2023-01-25T02:23:02;102982.63;;;9.01;52.14
27613;BME280;15036;48.094;-1.690;2023-01-25T02:25:31;102984.75;;;8.97;52.05
27613;BME280;15036;48.094;-1.690;2023-01-25T02:28:02;102984.75;;;8.97;52.55
27613;BME280;15036;48.094;-1.690;2023-01-25T02:30:30;102981.94;;;8.88;52.53
27613;BME280;15036;48.094;-1.690;2023-01-25T02:32:56;102984.44;;;8.91;52.50
27613;BME280;15036;48.094;-1.690;2023-01-25T02:35:35;102983.41;;;8.92;52.40
27613;BME280;15036;48.094;-1.690;2023-01-25T02:38:01;102982.75;;;8.79;52.72
27613;BME280;15036;48.094;-1.690;2023-01-25T02:40:29;102983.75;;;8.77;52.92
27613;BME280;15036;48.094;-1.690;2023-01-25T02:42:56;102983.22;;;8.84;52.90
27613;BME280;15036;48.094;-1.690;2023-01-25T02:45:24;102985.88;;;8.74;53.08
27613;BME280;15036;48.094;-1.690;2023-01-25T02:47:52;102982.41;;;8.72;53.19
27613;BME280;15036;48.094;-1.690;2023-01-25T02:50:17;102990.84;;;8.90;53.01
27613;BME280;15036;48.094;-1.690;2023-01-25T02:52:43;102991.81;;;8.79;53.02
27613;BME280;15036;48.094;-1.690;2023-01-25T02:55:08;102988.84;;;8.92;53.45
27613;BME280;15036;48.094;-1.690;2023-01-25T02:57:34;102984.69;;;8.88;52.98
27613;BME280;15036;48.094;-1.690;2023-01-25T02:59:59;102986.41;;;8.89;53.01
27613;BME280;15036;48.094;-1.690;2023-01-25T03:02:24;102989.53;;;8.84;52.84
27613;BME280;15036;48.094;-1.690;2023-01-25T03:04:50;102979.84;;;8.70;53.48
27613;BME280;15036;48.094;-1.690;2023-01-25T03:07:15;102986.81;;;8.63;53.72
27613;BME280;15036;48.094;-1.690;2023-01-25T03:09:40;102980.63;;;8.82;53.41
27613;BME280;15036;48.094;-1.690;2023-01-25T03:12:06;102983.38;;;8.61;53.77
27613;BME280;15036;48.094;-1.690;2023-01-25T03:14:31;102983.16;;;8.53;53.72
27613;BME280;15036;48.094;-1.690;2023-01-25T03:16:57;102986.34;;;8.58;53.71
27613;BME280;15036;48.094;-1.690;2023-01-25T03:19:22;102985.72;;;8.75;53.66
27613;BME280;15036;48.094;-1.690;2023-01-25T03:21:47;102984.84;;;8.65;53.73
27613;BME280;15036;48.094;-1.690;2023-01-25T03:24:13;102975.84;;;8.74;53.53
27613;BME280;15036;48.094;-1.690;2023-01-25T03:26:38;102971.06;;;8.67;53.78
27613;BME280;15036;48.094;-1.690;2023-01-25T03:29:22;102968.88;;;8.82;53.52
27613;BME280;15036;48.094;-1.690;2023-01-25T03:31:47;102969.56;;;8.53;53.96
27613;BME280;15036;48.094;-1.690;2023-01-25T03:34:13;102962.69;;;8.38;54.21
27613;BME280;15036;48.094;-1.690;2023-01-25T03:36:38;102963.75;;;8.47;54.17
27613;BME280;15036;48.094;-1.690;2023-01-25T03:39:04;102963.81;;;8.56;53.97
27613;BME280;15036;48.094;-1.690;2023-01-25T03:41:29;102964.22;;;8.31;54.29
27613;BME280;15036;48.094;-1.690;2023-01-25T03:43:54;102965.91;;;8.32;54.36
27613;BME280;15036;48.094;-1.690;2023-01-25T03:46:20;102958.28;;;8.26;54.20
27613;BME280;15036;48.094;-1.690;2023-01-25T03:48:45;102959.06;;;8.06;54.93
27613;BME280;15036;48.094;-1.690;2023-01-25T03:51:11;102964.28;;;8.41;54.09
27613;BME280;15036;48.094;-1.690;2023-01-25T03:53:36;102960.97;;;8.37;54.41
27613;BME280;15036;48.094;-1.690;2023-01-25T03:56:04;102957.06;;;8.51;54.05
27613;BME280;15036;48.094;-1.690;2023-01-25T03:58:33;102956.84;;;8.43;53.90
27613;BME280;15036;48.094;-1.690;2023-01-25T04:00:59;102954.69;;;8.57;53.81
27613;BME280;15036;48.094;-1.690;2023-01-25T04:03:25;102945.06;;;8.11;54.55
27613;BME280;15036;48.094;-1.690;2023-01-25T04:05:52;102944.34;;;8.09;54.75
27613;BME280;15036;48.094;-1.690;2023-01-25T04:08:18;102941.91;;;8.37;53.92
27613;BME280;15036;48.094;-1.690;2023-01-25T04:10:43;102937.28;;;8.49;53.89
27613;BME280;15036;48.094;-1.690;2023-01-25T04:13:10;102942.31;;;8.53;53.80
27613;BME280;15036;48.094;-1.690;2023-01-25T04:15:35;102946.06;;;7.67;55.75
27613;BME280;15036;48.094;-1.690;2023-01-25T04:18:01;102936.00;;;8.21;54.61
27613;BME280;15036;48.094;-1.690;2023-01-25T04:20:26;102937.50;;;8.46;54.03
27613;BME280;15036;48.094;-1.690;2023-01-25T04:22:51;102942.44;;;8.20;54.28
27613;BME280;15036;48.094;-1.690;2023-01-25T04:25:17;102937.00;;;8.31;54.14
27613;BME280;15036;48.094;-1.690;2023-01-25T04:27:42;102945.81;;;8.44;53.77
27613;BME280;15036;48.094;-1.690;2023-01-25T04:30:08;102938.38;;;8.46;53.61
27613;BME280;15036;48.094;-1.690;2023-01-25T04:32:35;102936.19;;;8.40;53.62
27613;BME280;15036;48.094;-1.690;2023-01-25T04:35:00;102936.94;;;8.63;52.98
27613;BME280;15036;48.094;-1.690;2023-01-25T04:37:26;102940.38;;;8.44;53.43
27613;BME280;15036;48.094;-1.690;2023-01-25T04:39:51;102935.00;;;8.33;53.51
27613;BME280;15036;48.094;-1.690;2023-01-25T04:42:16;102938.38;;;8.46;53.33
27613;BME280;15036;48.094;-1.690;2023-01-25T04:44:42;102930.75;;;8.40;53.33
27613;BME280;15036;48.094;-1.690;2023-01-25T04:47:07;102924.69;;;8.05;54.08
27613;BME280;15036;48.094;-1.690;2023-01-25T04:49:32;102934.47;;;8.08;54.09
27613;BME280;15036;48.094;-1.690;2023-01-25T04:51:58;102938.53;;;8.45;53.16
27613;BME280;15036;48.094;-1.690;2023-01-25T04:54:23;102932.91;;;7.94;53.99
27613;BME280;15036;48.094;-1.690;2023-01-25T04:56:48;102932.03;;;6.84;56.76
27613;BME280;15036;48.094;-1.690;2023-01-25T04:59:14;102929.59;;;7.37;55.74
27613;BME280;15036;48.094;-1.690;2023-01-25T05:01:39;102919.00;;;8.08;54.16
27613;BME280;15036;48.094;-1.690;2023-01-25T05:04:05;102925.22;;;7.56;54.59
27613;BME280;15036;48.094;-1.690;2023-01-25T05:06:30;102933.31;;;7.78;54.84
27613;BME280;15036;48.094;-1.690;2023-01-25T05:08:55;102920.47;;;8.12;53.66
27613;BME280;15036;48.094;-1.690;2023-01-25T05:11:21;102919.63;;;8.12;53.86
27613;BME280;15036;48.094;-1.690;2023-01-25T05:13:46;102925.81;;;8.03;53.79
27613;BME280;15036;48.094;-1.690;2023-01-25T05:16:12;102925.63;;;8.26;53.25
27613;BME280;15036;48.094;-1.690;2023-01-25T05:18:37;102919.19;;;8.48;53.18
27613;BME280;15036;48.094;-1.690;2023-01-25T05:21:02;102921.31;;;8.44;52.83
27613;BME280;15036;48.094;-1.690;2023-01-25T05:23:28;102922.94;;;8.47;53.04
27613;BME280;15036;48.094;-1.690;2023-01-25T05:25:53;102913.13;;;8.24;53.01
27613;BME280;15036;48.094;-1.690;2023-01-25T05:28:37;102907.06;;;7.88;53.52
27613;BME280;15036;48.094;-1.690;2023-01-25T05:31:03;102913.53;;;8.40;52.55
27613;BME280;15036;48.094;-1.690;2023-01-25T05:33:29;102912.75;;;8.28;52.65
27613;BME280;15036;48.094;-1.690;2023-01-25T05:35:54;102911.69;;;8.40;52.52
27613;BME280;15036;48.094;-1.690;2023-01-25T05:38:20;102908.09;;;8.40;52.40
27613;BME280;15036;48.094;-1.690;2023-01-25T05:40:46;102903.59;;;8.18;52.63
27613;BME280;15036;48.094;-1.690;2023-01-25T05:43:11;102909.78;;;7.88;53.69
27613;BME280;15036;48.094;-1.690;2023-01-25T05:45:36;102913.03;;;8.14;53.35
27613;BME280;15036;48.094;-1.690;2023-01-25T05:48:02;102920.00;;;8.39;52.81
27613;BME280;15036;48.094;-1.690;2023-01-25T05:50:27;102914.97;;;8.23;53.09
27613;BME280;15036;48.094;-1.690;2023-01-25T05:52:53;102920.13;;;8.37;52.92
27613;BME280;15036;48.094;-1.690;2023-01-25T05:55:18;102921.09;;;8.16;53.56
27613;BME280;15036;48.094;-1.690;2023-01-25T05:57:43;102921.19;;;8.25;53.45
27613;BME280;15036;48.094;-1.690;2023-01-25T06:00:10;102918.25;;;8.06;53.74
27613;BME280;15036;48.094;-1.690;2023-01-25T06:02:36;102922.78;;;7.96;53.99
27613;BME280;15036;48.094;-1.690;2023-01-25T06:05:03;102920.00;;;8.07;53.93
27613;BME280;15036;48.094;-1.690;2023-01-25T06:07:32;102919.56;;;8.23;53.43
27613;BME280;15036;48.094;-1.690;2023-01-25T06:10:00;102922.38;;;7.47;55.34
27613;BME280;15036;48.094;-1.690;2023-01-25T06:12:25;102926.81;;;7.59;55.27
27613;BME280;15036;48.094;-1.690;2023-01-25T06:14:52;102916.38;;;7.86;54.59
27613;BME280;15036;48.094;-1.690;2023-01-25T06:17:17;102922.34;;;7.69;54.85
27613;BME280;15036;48.094;-1.690;2023-01-25T06:19:43;102926.34;;;7.43;55.90
27613;BME280;15036;48.094;-1.690;2023-01-25T06:22:08;102929.75;;;7.78;55.20
27613;BME280;15036;48.094;-1.690;2023-01-25T06:24:34;102919.41;;;7.93;54.86
27613;BME280;15036;48.094;-1.690;2023-01-25T06:26:59;102919.25;;;7.73;55.06
27613;BME280;15036;48.094;-1.690;2023-01-25T06:29:24;102928.47;;;6.95;56.88
27613;BME280;15036;48.094;-1.690;2023-01-25T06:31:50;102919.72;;;7.03;57.00
27613;BME280;15036;48.094;-1.690;2023-01-25T06:34:15;102922.16;;;6.72;58.03
27613;BME280;15036;48.094;-1.690;2023-01-25T06:36:41;102918.47;;;7.07;56.92
27613;BME280;15036;48.094;-1.690;2023-01-25T06:39:06;102918.34;;;7.30;56.24
27613;BME280;15036;48.094;-1.690;2023-01-25T06:41:32;102918.19;;;7.54;55.88
27613;BME280;15036;48.094;-1.690;2023-01-25T06:43:57;102923.34;;;7.57;55.64
27613;BME280;15036;48.094;-1.690;2023-01-25T06:46:23;102925.22;;;6.68;57.96
27613;BME280;15036;48.094;-1.690;2023-01-25T06:48:48;102929.31;;;6.84;57.15
27613;BME280;15036;48.094;-1.690;2023-01-25T06:51:14;102927.22;;;7.21;56.12
27613;BME280;15036;48.094;-1.690;2023-01-25T06:53:41;102924.00;;;7.60;55.32
27613;BME280;15036;48.094;-1.690;2023-01-25T06:56:12;102918.91;;;7.45;55.31
27613;BME280;15036;48.094;-1.690;2023-01-25T06:58:39;102920.66;;;6.79;57.10
27613;BME280;15036;48.094;-1.690;2023-01-25T07:01:07;102925.38;;;7.44;55.79
27613;BME280;15036;48.094;-1.690;2023-01-25T07:03:36;102928.22;;;7.42;55.47
27613;BME280;15036;48.094;-1.690;2023-01-25T07:06:03;102927.97;;;7.12;56.40
27613;BME280;15036;48.094;-1.690;2023-01-25T07:08:30;102929.19;;;7.19;56.32
27613;BME280;15036;48.094;-1.690;2023-01-25T07:11:00;102938.41;;;7.61;55.10
27613;BME280;15036;48.094;-1.690;2023-01-25T07:13:27;102938.19;;;7.64;55.01
27613;BME280;15036;48.094;-1.690;2023-01-25T07:15:54;102939.88;;;7.76;54.73
27613;BME280;15036;48.094;-1.690;2023-01-25T07:18:19;102939.41;;;7.60;54.47
27613;BME280;15036;48.094;-1.690;2023-01-25T07:20:45;102939.06;;;7.53;55.09
27613;BME280;15036;48.094;-1.690;2023-01-25T07:23:10;102940.44;;;7.26;54.80
27613;BME280;15036;48.094;-1.690;2023-01-25T07:25:35;102942.41;;;7.24;55.71
27613;BME280;15036;48.094;-1.690;2023-01-25T07:28:01;102944.25;;;6.90;57.05
27613;BME280;15036;48.094;-1.690;2023-01-25T07:30:26;102943.50;;;6.88;56.64
27613;BME280;15036;48.094;-1.690;2023-01-25T07:32:51;102944.41;;;6.54;57.62
27613;BME280;15036;48.094;-1.690;2023-01-25T07:35:17;102951.72;;;6.53;57.88
27613;BME280;15036;48.094;-1.690;2023-01-25T07:37:42;102960.63;;;6.55;57.25
27613;BME280;15036;48.094;-1.690;2023-01-25T07:40:08;102956.34;;;6.40;58.18
27613;BME280;15036;48.094;-1.690;2023-01-25T07:42:34;102955.72;;;6.93;56.23
27613;BME280;15036;48.094;-1.690;2023-01-25T07:44:59;102957.69;;;6.35;57.74
27613;BME280;15036;48.094;-1.690;2023-01-25T07:47:26;102956.78;;;6.58;57.67
27613;BME280;15036;48.094;-1.690;2023-01-25T07:49:51;102955.50;;;7.30;55.74
27613;BME280;15036;48.094;-1.690;2023-01-25T07:52:19;102959.19;;;7.62;54.67
27613;BME280;15036;48.094;-1.690;2023-01-25T07:54:44;102951.38;;;7.79;54.29
27613;BME280;15036;48.094;-1.690;2023-01-25T07:57:11;102948.69;;;7.35;54.34
27613;BME280;15036;48.094;-1.690;2023-01-25T07:59:36;102948.94;;;7.21;54.95
27613;BME280;15036;48.094;-1.690;2023-01-25T08:02:02;102955.75;;;7.38;54.00
27613;BME280;15036;48.094;-1.690;2023-01-25T08:04:27;102949.63;;;7.78;53.13
27613;BME280;15036;48.094;-1.690;2023-01-25T08:06:52;102944.16;;;7.36;53.69
27613;BME280;15036;48.094;-1.690;2023-01-25T08:09:18;102956.19;;;7.76;53.38
27613;BME280;15036;48.094;-1.690;2023-01-25T08:11:44;102959.31;;;7.60;53.00
27613;BME280;15036;48.094;-1.690;2023-01-25T08:14:10;102956.19;;;7.76;52.90
27613;BME280;15036;48.094;-1.690;2023-01-25T08:16:36;102951.00;;;7.73;52.81
27613;BME280;15036;48.094;-1.690;2023-01-25T08:19:02;102948.81;;;7.56;53.08
27613;BME280;15036;48.094;-1.690;2023-01-25T08:21:31;102949.63;;;7.78;52.48
27613;BME280;15036;48.094;-1.690;2023-01-25T08:23:58;102946.09;;;7.45;53.07
27613;BME280;15036;48.094;-1.690;2023-01-25T08:26:24;102943.28;;;7.24;53.43
27613;BME280;15036;48.094;-1.690;2023-01-25T08:28:50;102941.78;;;7.09;53.88
27613;BME280;15036;48.094;-1.690;2023-01-25T08:31:20;102935.88;;;7.48;53.05
27613;BME280;15036;48.094;-1.690;2023-01-25T08:33:46;102950.44;;;6.92;54.09
27613;BME280;15036;48.094;-1.690;2023-01-25T08:36:13;102946.34;;;7.53;52.93
27613;BME280;15036;48.094;-1.690;2023-01-25T08:38:40;102945.25;;;7.44;52.99
27613;BME280;15036;48.094;-1.690;2023-01-25T08:41:11;102939.22;;;7.19;53.32
27613;BME280;15036;48.094;-1.690;2023-01-25T08:43:37;102937.84;;;7.46;52.89
27613;BME280;15036;48.094;-1.690;2023-01-25T08:46:03;102936.59;;;6.84;53.49
27613;BME280;15036;48.094;-1.690;2023-01-25T08:48:30;102945.97;;;7.13;53.97
27613;BME280;15036;48.094;-1.690;2023-01-25T08:50:55;102947.56;;;7.49;52.51
27613;BME280;15036;48.094;-1.690;2023-01-25T08:53:21;102945.00;;;7.14;53.03
27613;BME280;15036;48.094;-1.690;2023-01-25T08:55:46;102944.97;;;7.69;52.37
27613;BME280;15036;48.094;-1.690;2023-01-25T08:58:13;102936.94;;;7.68;52.14
27613;BME280;15036;48.094;-1.690;2023-01-25T09:00:40;102947.34;;;7.30;53.15
27613;BME280;15036;48.094;-1.690;2023-01-25T09:03:06;102950.56;;;7.01;53.37
27613;BME280;15036;48.094;-1.690;2023-01-25T09:05:33;102950.31;;;7.38;52.78
27613;BME280;15036;48.094;-1.690;2023-01-25T09:07:59;102946.13;;;7.00;53.54
27613;BME280;15036;48.094;-1.690;2023-01-25T09:10:25;102949.09;;;7.31;53.28
27613;BME280;15036;48.094;-1.690;2023-01-25T09:12:50;102935.47;;;7.53;52.59
27613;BME280;15036;48.094;-1.690;2023-01-25T09:15:16;102938.91;;;7.55;52.43
27613;BME280;15036;48.094;-1.690;2023-01-25T09:17:41;102941.63;;;7.55;52.56
27613;BME280;15036;48.094;-1.690;2023-01-25T09:20:07;102934.34;;;8.09;51.61
27613;BME280;15036;48.094;-1.690;2023-01-25T09:22:33;102926.94;;;7.68;52.18
27613;BME280;15036;48.094;-1.690;2023-01-25T09:24:59;102926.16;;;8.09;51.23
27613;BME280;15036;48.094;-1.690;2023-01-25T09:27:24;102925.16;;;8.10;51.57
27613;BME280;15036;48.094;-1.690;2023-01-25T09:29:49;102928.59;;;8.23;51.37
27613;BME280;15036;48.094;-1.690;2023-01-25T09:32:15;102926.53;;;8.16;51.51
27613;BME280;15036;48.094;-1.690;2023-01-25T09:34:40;102932.22;;;8.13;51.54
27613;BME280;15036;48.094;-1.690;2023-01-25T09:37:06;102933.44;;;7.88;51.94
27613;BME280;15036;48.094;-1.690;2023-01-25T09:39:31;102940.28;;;7.49;52.59
27613;BME280;15036;48.094;-1.690;2023-01-25T09:45:16;102921.09;;;8.05;52.17
27613;BME280;15036;48.094;-1.690;2023-01-25T09:55:36;102912.03;;;8.47;51.26
27613;BME280;15036;48.094;-1.690;2023-01-25T09:58:03;102908.69;;;8.64;51.08
27613;BME280;15036;48.094;-1.690;2023-01-25T10:00:36;102908.03;;;8.71;50.97
27613;BME280;15036;48.094;-1.690;2023-01-25T10:03:17;102906.66;;;8.56;51.10
27613;BME280;15036;48.094;-1.690;2023-01-25T10:05:47;102911.78;;;9.01;50.27
27613;BME280;15036;48.094;-1.690;2023-01-25T10:11:07;102904.31;;;8.00;52.09
27613;BME280;15036;48.094;-1.690;2023-01-25T10:13:38;102910.50;;;8.33;51.63
27613;BME280;15036;48.094;-1.690;2023-01-25T10:16:13;102899.09;;;8.08;52.10
27613;BME280;15036;48.094;-1.690;2023-01-25T10:26:35;102899.22;;;8.79;50.74
27613;BME280;15036;48.094;-1.690;2023-01-25T10:29:14;102898.44;;;8.67;51.11
27613;BME280;15036;48.094;-1.690;2023-01-25T10:31:49;102900.28;;;8.67;51.12
27613;BME280;15036;48.094;-1.690;2023-01-25T10:34:23;102895.25;;;8.93;50.78
27613;BME280;15036;48.094;-1.690;2023-01-25T10:36:53;102892.47;;;9.13;50.52
27613;BME280;15036;48.094;-1.690;2023-01-25T10:39:19;102899.81;;;9.13;50.32
27613;BME280;15036;48.094;-1.690;2023-01-25T10:41:53;102898.59;;;8.75;50.88
27613;BME280;15036;48.094;-1.690;2023-01-25T10:44:20;102905.22;;;8.32;51.92
27613;BME280;15036;48.094;-1.690;2023-01-25T10:49:42;102882.44;;;8.53;51.65
27613;BME280;15036;48.094;-1.690;2023-01-25T10:54:47;102881.47;;;8.85;51.06
27613;BME280;15036;48.094;-1.690;2023-01-25T10:57:19;102880.34;;;8.66;51.13
27613;BME280;15036;48.094;-1.690;2023-01-25T10:59:49;102885.88;;;8.55;51.93
27613;BME280;15036;48.094;-1.690;2023-01-25T11:05:35;102877.63;;;9.27;50.76
27613;BME280;15036;48.094;-1.690;2023-01-25T11:08:26;102866.31;;;9.41;50.24
27613;BME280;15036;48.094;-1.690;2023-01-25T11:10:57;102861.41;;;9.35;50.47
27613;BME280;15036;48.094;-1.690;2023-01-25T11:13:28;102852.06;;;9.28;50.38
27613;BME280;15036;48.094;-1.690;2023-01-25T11:16:13;102846.28;;;9.12;50.47
27613;BME280;15036;48.094;-1.690;2023-01-25T11:18:50;102841.22;;;8.98;50.89
27613;BME280;15036;48.094;-1.690;2023-01-25T11:21:19;102837.38;;;9.00;50.75
27613;BME280;15036;48.094;-1.690;2023-01-25T11:26:35;102822.56;;;9.33;50.47
27613;BME280;15036;48.094;-1.690;2023-01-25T11:29:18;102815.84;;;9.56;49.85
27613;BME280;15036;48.094;-1.690;2023-01-25T11:31:47;102809.75;;;9.33;50.13
27613;BME280;15036;48.094;-1.690;2023-01-25T11:34:18;102812.25;;;9.65;49.85
27613;BME280;15036;48.094;-1.690;2023-01-25T11:39:58;102799.91;;;9.80;49.50
27613;BME280;15036;48.094;-1.690;2023-01-25T11:45:11;102793.00;;;9.67;49.61
27613;BME280;15036;48.094;-1.690;2023-01-25T11:50:39;102791.88;;;9.98;49.04
27613;BME280;15036;48.094;-1.690;2023-01-25T12:01:37;102768.22;;;10.44;48.18
27613;BME280;15036;48.094;-1.690;2023-01-25T12:04:40;102760.25;;;10.61;48.05
27613;BME280;15036;48.094;-1.690;2023-01-25T12:07:25;102759.34;;;10.70;47.82
27613;BME280;15036;48.094;-1.690;2023-01-25T12:15:54;102738.91;;;10.74;47.44
27613;BME280;15036;48.094;-1.690;2023-01-25T12:18:48;102736.22;;;10.64;47.51
27613;BME280;15036;48.094;-1.690;2023-01-25T12:21:39;102724.25;;;10.38;47.95
27613;BME280;15036;48.094;-1.690;2023-01-25T12:32:08;102700.06;;;10.53;47.91
27613;BME280;15036;48.094;-1.690;2023-01-25T12:34:39;102696.06;;;10.01;48.78
27613;BME280;15036;48.094;-1.690;2023-01-25T12:37:27;102690.53;;;9.64;49.68
27613;BME280;15036;48.094;-1.690;2023-01-25T12:40:00;102676.81;;;10.12;48.88
27613;BME280;15036;48.094;-1.690;2023-01-25T12:42:43;102672.53;;;10.36;48.43
27613;BME280;15036;48.094;-1.690;2023-01-25T12:45:22;102670.72;;;10.55;48.31
27613;BME280;15036;48.094;-1.690;2023-01-25T12:47:54;102659.41;;;10.50;48.32
27613;BME280;15036;48.094;-1.690;2023-01-25T12:50:26;102657.06;;;9.81;49.32
27613;BME280;15036;48.094;-1.690;2023-01-25T12:52:58;102652.31;;;10.57;48.00
27613;BME280;15036;48.094;-1.690;2023-01-25T12:55:26;102644.28;;;10.55;48.19
27613;BME280;15036;48.094;-1.690;2023-01-25T13:11:04;102624.41;;;10.80;47.46
27613;BME280;15036;48.094;-1.690;2023-01-25T13:13:30;102611.13;;;10.68;47.66
27613;BME280;15036;48.094;-1.690;2023-01-25T13:18:55;102604.50;;;10.70;48.17
27613;BME280;15036;48.094;-1.690;2023-01-25T13:24:16;102597.88;;;11.08;47.58
27613;BME280;15036;48.094;-1.690;2023-01-25T13:26:49;102605.38;;;11.06;47.78
27613;BME280;15036;48.094;-1.690;2023-01-25T13:37:22;102609.31;;;10.59;49.04
27613;BME280;15036;48.094;-1.690;2023-01-25T13:40:26;102606.78;;;9.93;49.79
27613;BME280;15036;48.094;-1.690;2023-01-25T13:43:18;102604.25;;;9.73;51.26
27613;BME280;15036;48.094;-1.690;2023-01-25T13:45:46;102596.66;;;10.13;50.21
27613;BME280;15036;48.094;-1.690;2023-01-25T13:48:17;102604.53;;;10.43;49.97
27613;BME280;15036;48.094;-1.690;2023-01-25T13:50:52;102605.72;;;10.58;49.52
27613;BME280;15036;48.094;-1.690;2023-01-25T13:53:23;102608.38;;;10.68;49.29
27613;BME280;15036;48.094;-1.690;2023-01-25T13:55:53;102603.28;;;10.37;50.00
27613;BME280;15036;48.094;-1.690;2023-01-25T13:58:28;102607.78;;;9.92;51.12
27613;BME280;15036;48.094;-1.690;2023-01-25T14:01:03;102610.16;;;10.14;50.19
27613;BME280;15036;48.094;-1.690;2023-01-25T14:03:46;102619.47;;;10.21;50.47
27613;BME280;15036;48.094;-1.690;2023-01-25T14:06:42;102604.09;;;9.84;51.38
27613;BME280;15036;48.094;-1.690;2023-01-25T14:09:15;102604.00;;;10.03;51.05
27613;BME280;15036;48.094;-1.690;2023-01-25T14:11:54;102609.50;;;9.93;51.46
27613;BME280;15036;48.094;-1.690;2023-01-25T14:14:27;102599.53;;;10.38;50.33
27613;BME280;15036;48.094;-1.690;2023-01-25T14:17:15;102601.25;;;10.12;50.49
27613;BME280;15036;48.094;-1.690;2023-01-25T14:19:47;102601.53;;;10.09;51.13
27613;BME280;15036;48.094;-1.690;2023-01-25T14:22:18;102599.88;;;10.53;50.20
27613;BME280;15036;48.094;-1.690;2023-01-25T14:24:44;102600.19;;;10.68;49.56
27613;BME280;15036;48.094;-1.690;2023-01-25T14:27:13;102603.50;;;10.89;49.53
27613;BME280;15036;48.094;-1.690;2023-01-25T14:29:39;102606.50;;;10.51;50.06
27613;BME280;15036;48.094;-1.690;2023-01-25T14:32:05;102609.25;;;10.23;50.42